Private Wetterstation Wechselburg
Wetterdaten: Woche 22.08.11 - 28.08.11 (KW34)
Datum Zeit Temp. +2m Bodentemp. Temp.+5cm Temp. Wind Windchill X Diff Temp. Feuchte +2m Feuchte +5cm Sonnenschein Luftdruck Regen Wind Richtung Sonnenschein UV Taupunkt Windchill Windben
22.08.2011 00:00 19,0 C 23,5 C 18,3 C 18,5 C 17,6 C 0,0 C 88 % 91 % 0 % 1012,6 hPa 0,0 l/m 0,0 km/h (0 Bft) N 0,00 h 0,0 UV-I 17,0 C 17,6 C 0,0 km/h (0 Bft)
22.08.2011 01:00 18,9 C 23,5 C 18,3 C 18,4 C 17,6 C 0,0 C 89 % 92 % 0 % 1012,4 hPa 0,0 l/m 0,0 km/h (0 Bft) N 0,00 h 0,0 UV-I 16,9 C 17,6 C 0,0 km/h (0 Bft)
22.08.2011 02:00 18,9 C 23,4 C 18,1 C 18,6 C 18,0 C 0,0 C 88 % 92 % 0 % 1012,8 hPa 0,0 l/m 0,0 km/h (0 Bft) N 0,00 h 0,0 UV-I 16,9 C 18,0 C 0,0 km/h (0 Bft)
22.08.2011 03:00 19,1 C 23,2 C 18,3 C 18,7 C 18,1 C 0,0 C 88 % 92 % 0 % 1012,7 hPa 0,0 l/m 0,0 km/h (0 Bft) N 0,00 h 0,0 UV-I 17,0 C 18,1 C 0,0 km/h (0 Bft)
22.08.2011 04:00 19,1 C 23,0 C 18,2 C 18,7 C 18,1 C 0,0 C 88 % 92 % 0 % 1012,7 hPa 0,0 l/m 0,0 km/h (0 Bft) N 0,00 h 0,0 UV-I 17,0 C 18,1 C 0,0 km/h (0 Bft)
22.08.2011 05:00 19,2 C 23,1 C 18,3 C 18,9 C 18,2 C 0,0 C 89 % 92 % 0 % 1012,8 hPa 0,0 l/m 0,0 km/h (0 Bft) N 0,00 h 0,0 UV-I 17,3 C 18,2 C 0,0 km/h (0 Bft)
22.08.2011 06:00 19,4 C 23,1 C 18,5 C 19,2 C 18,9 C 0,0 C 89 % 93 % 0 % 1013,4 hPa 0,0 l/m 0,0 km/h (0 Bft) N 0,00 h 0,0 UV-I 17,5 C 18,9 C 0,0 km/h (0 Bft)
22.08.2011 07:00 20,2 C 23,1 C 19,6 C 23,0 C 23,0 C 2,8 C 89 % 93 % 72 % 1014,0 hPa 0,0 l/m 0,0 km/h (0 Bft) N 0,67 h 0,0 UV-I 18,3 C 23,0 C 0,0 km/h (0 Bft)
22.08.2011 08:00 21,3 C 23,1 C 20,5 C 25,6 C 25,6 C 4,4 C 87 % 92 % 92 % 1014,4 hPa 0,0 l/m 0,9 km/h (0 Bft) SW 0,75 h 0,0 UV-I 19,1 C 25,6 C 2,5 km/h (1 Bft)
22.08.2011 09:00 22,2 C 22,7 C 22,2 C 24,5 C 24,5 C 2,4 C 84 % 85 % 62 % 1014,9 hPa 0,0 l/m 4,3 km/h (1 Bft) SW 0,00 h 0,1 UV-I 19,2 C 24,5 C 7,2 km/h (2 Bft)
22.08.2011 10:00 22,7 C 22,6 C 22,8 C 25,5 C 25,5 C 2,7 C 81 % 81 % 72 % 1015,3 hPa 0,0 l/m 4,5 km/h (1 Bft) W-SW 0,00 h 0,1 UV-I 19,3 C 25,5 C 5,0 km/h (1 Bft)
22.08.2011 11:00 23,2 C 22,7 C 23,1 C 26,4 C 26,4 C 3,3 C 81 % 83 % 86 % 1015,5 hPa 0,0 l/m 3,5 km/h (1 Bft) W-SW 0,50 h 0,1 UV-I 19,7 C 26,4 C 4,6 km/h (1 Bft)
22.08.2011 12:00 24,1 C 22,7 C 24,5 C 28,7 C 28,7 C 4,6 C 76 % 76 % 100 % 1015,6 hPa 0,0 l/m 5,6 km/h (1 Bft) SW 1,00 h 0,1 UV-I 19,6 C 28,7 C 7,8 km/h (2 Bft)
22.08.2011 13:00 24,8 C 22,7 C 25,6 C 29,8 C 29,8 C 5,0 C 70 % 69 % 100 % 1015,9 hPa 0,0 l/m 4,9 km/h (1 Bft) SW 1,00 h 0,1 UV-I 18,9 C 29,8 C 5,0 km/h (1 Bft)
22.08.2011 14:00 25,5 C 22,7 C 27,6 C 31,8 C 31,8 C 6,3 C 67 % 63 % 100 % 1015,7 hPa 0,0 l/m 3,4 km/h (1 Bft) W-SW 1,00 h 0,1 UV-I 18,8 C 31,8 C 4,1 km/h (1 Bft)
22.08.2011 15:00 26,1 C 23,1 C 29,6 C 32,1 C 32,1 C 6,0 C 61 % 54 % 100 % 1015,5 hPa 0,0 l/m 3,8 km/h (1 Bft) SW 1,00 h 0,0 UV-I 17,8 C 32,1 C 4,9 km/h (1 Bft)
22.08.2011 16:00 26,3 C 23,7 C 28,4 C 31,6 C 31,6 C 5,3 C 61 % 57 % 100 % 1015,4 hPa 0,0 l/m 3,0 km/h (1 Bft) SW 1,00 h 0,0 UV-I 18,0 C 31,6 C 4,9 km/h (1 Bft)
22.08.2011 17:00 25,9 C 23,9 C 26,4 C 30,2 C 30,2 C 4,3 C 66 % 65 % 100 % 1015,8 hPa 0,0 l/m 2,0 km/h (1 Bft) N-NO 1,00 h 0,0 UV-I 19,0 C 30,2 C 4,5 km/h (1 Bft)
22.08.2011 18:00 25,0 C 24,1 C 24,8 C 27,9 C 27,9 C 3,0 C 67 % 67 % 77 % 1016,1 hPa 0,0 l/m 2,1 km/h (1 Bft) N 0,83 h 0,0 UV-I 18,3 C 27,9 C 3,1 km/h (1 Bft)
22.08.2011 19:00 23,7 C 24,1 C 22,8 C 24,3 C 24,2 C 0,7 C 69 % 72 % 18 % 1016,0 hPa 0,0 l/m 0,1 km/h (0 Bft) N 0,08 h 0,0 UV-I 17,6 C 24,2 C 0,2 km/h (0 Bft)
22.08.2011 20:00 22,1 C 24,3 C 20,9 C 21,5 C 20,3 C 0,0 C 76 % 81 % 0 % 1016,2 hPa 0,0 l/m 0,1 km/h (0 Bft) N 0,00 h 0,0 UV-I 17,6 C 20,3 C 0,2 km/h (0 Bft)
22.08.2011 21:00 20,7 C 24,4 C 19,6 C 19,9 C 18,4 C 0,0 C 81 % 85 % 0 % 1016,6 hPa 0,0 l/m 0,1 km/h (0 Bft) N 0,00 h 0,0 UV-I 17,2 C 18,4 C 0,2 km/h (0 Bft)
22.08.2011 22:00 19,6 C 24,4 C 18,7 C 18,8 C 17,2 C 0,0 C 84 % 88 % 0 % 1016,9 hPa 0,0 l/m 0,1 km/h (0 Bft) N 0,00 h 0,0 UV-I 16,8 C 17,2 C 0,0 km/h (0 Bft)
22.08.2011 23:00 18,7 C 24,4 C 17,9 C 18,0 C 16,6 C 0,0 C 86 % 89 % 0 % 1016,8 hPa 0,0 l/m 0,0 km/h (0 Bft) N 0,00 h 0,0 UV-I 16,3 C 16,6 C 0,0 km/h (0 Bft)
23.08.2011 00:00 18,2 C 24,3 C 17,4 C 17,5 C 16,1 C 0,0 C 87 % 90 % 0 % 1016,5 hPa 0,0 l/m 0,0 km/h (0 Bft) N 0,00 h 0,0 UV-I 16,0 C 16,1 C 0,0 km/h (0 Bft)
23.08.2011 01:00 17,7 C 24,2 C 17,0 C 17,1 C 15,8 C 0,0 C 88 % 90 % 0 % 1015,9 hPa 0,0 l/m 0,0 km/h (0 Bft) N 0,00 h 0,0 UV-I 15,6 C 15,8 C 0,0 km/h (0 Bft)
23.08.2011 02:00 17,5 C 24,0 C 16,8 C 16,8 C 15,5 C 0,0 C 88 % 91 % 0 % 1016,1 hPa 0,0 l/m 0,0 km/h (0 Bft) N 0,00 h 0,0 UV-I 15,5 C 15,5 C 0,0 km/h (0 Bft)
23.08.2011 03:00 17,2 C 23,9 C 16,5 C 16,6 C 15,4 C 0,0 C 88 % 91 % 0 % 1015,8 hPa 0,0 l/m 0,1 km/h (0 Bft) N 0,00 h 0,0 UV-I 15,2 C 15,4 C 0,3 km/h (0 Bft)
23.08.2011 04:00 17,1 C 23,8 C 16,4 C 16,6 C 15,6 C 0,0 C 89 % 91 % 0 % 1015,8 hPa 0,0 l/m 0,1 km/h (0 Bft) N 0,00 h 0,0 UV-I 15,3 C 15,6 C 0,0 km/h (0 Bft)
23.08.2011 05:00 17,0 C 23,5 C 16,2 C 16,4 C 15,3 C 0,0 C 89 % 91 % 0 % 1015,2 hPa 0,0 l/m 0,1 km/h (0 Bft) N 0,00 h 0,0 UV-I 15,1 C 15,3 C 0,0 km/h (0 Bft)
23.08.2011 06:00 17,2 C 23,5 C 16,4 C 16,7 C 15,6 C 0,0 C 89 % 92 % 0 % 1014,8 hPa 0,0 l/m 0,1 km/h (0 Bft) N 0,00 h 0,0 UV-I 15,3 C 15,6 C 0,1 km/h (0 Bft)
23.08.2011 07:00 18,1 C 23,5 C 17,4 C 19,8 C 19,7 C 1,8 C 86 % 90 % 46 % 1015,0 hPa 0,0 l/m 1,1 km/h (0 Bft) O-NO 0,42 h 0,0 UV-I 15,8 C 19,7 C 2,1 km/h (1 Bft)
23.08.2011 08:00 19,5 C 23,5 C 19,3 C 24,8 C 24,8 C 5,3 C 85 % 86 % 99 % 1015,0 hPa 0,0 l/m 2,4 km/h (1 Bft) O-NO 1,00 h 0,1 UV-I 16,8 C 24,8 C 2,6 km/h (1 Bft)
23.08.2011 09:00 21,1 C 23,5 C 20,9 C 25,3 C 25,3 C 4,3 C 83 % 84 % 86 % 1014,9 hPa 0,0 l/m 1,8 km/h (1 Bft) N-NW 0,58 h 0,0 UV-I 18,0 C 25,3 C 2,5 km/h (1 Bft)
23.08.2011 10:00 22,1 C 23,5 C 22,9 C 24,6 C 24,6 C 2,5 C 80 % 78 % 65 % 1014,7 hPa 0,0 l/m 1,8 km/h (1 Bft) NO 0,00 h 0,0 UV-I 18,4 C 24,6 C 3,3 km/h (1 Bft)
23.08.2011 11:00 23,7 C 23,4 C 24,0 C 25,6 C 25,6 C 1,9 C 76 % 76 % 49 % 1013,8 hPa 0,0 l/m 6,1 km/h (2 Bft) O-NO 0,00 h 0,0 UV-I 19,2 C 25,6 C 8,4 km/h (2 Bft)
23.08.2011 12:00 25,6 C 23,0 C 25,5 C 29,5 C 29,5 C 3,9 C 72 % 71 % 90 % 1013,3 hPa 0,0 l/m 6,1 km/h (2 Bft) O-NO 0,75 h 0,1 UV-I 20,0 C 29,5 C 6,5 km/h (2 Bft)
23.08.2011 13:00 26,9 C 23,1 C 27,1 C 33,1 C 33,1 C 6,2 C 68 % 68 % 100 % 1013,2 hPa 0,0 l/m 3,3 km/h (1 Bft) O-NO 1,00 h 0,1 UV-I 20,5 C 33,1 C 4,0 km/h (1 Bft)
23.08.2011 14:00 27,5 C 23,3 C 28,2 C 33,1 C 33,1 C 5,6 C 65 % 64 % 100 % 1012,9 hPa 0,0 l/m 4,3 km/h (1 Bft) O-NO 1,00 h 0,1 UV-I 20,3 C 33,1 C 5,1 km/h (1 Bft)
23.08.2011 15:00 27,6 C 23,7 C 29,5 C 31,7 C 31,7 C 4,1 C 64 % 60 % 100 % 1012,5 hPa 0,0 l/m 6,8 km/h (2 Bft) O-NO 1,00 h 0,0 UV-I 20,1 C 31,7 C 10,4 km/h (2 Bft)
23.08.2011 16:00 28,0 C 24,0 C 29,6 C 32,1 C 32,1 C 4,1 C 64 % 60 % 100 % 1012,2 hPa 0,0 l/m 5,7 km/h (1 Bft) O-NO 0,97 h 0,0 UV-I 20,4 C 32,1 C 6,8 km/h (2 Bft)
23.08.2011 17:00 28,2 C 24,3 C 28,8 C 31,6 C 31,6 C 3,4 C 64 % 62 % 89 % 1011,9 hPa 0,0 l/m 5,8 km/h (1 Bft) O-NO 0,87 h 0,0 UV-I 20,6 C 31,6 C 7,0 km/h (2 Bft)
23.08.2011 18:00 27,8 C 24,4 C 27,9 C 29,8 C 29,8 C 2,0 C 67 % 66 % 52 % 1011,3 hPa 0,0 l/m 4,3 km/h (1 Bft) O-NO 0,00 h 0,0 UV-I 21,0 C 29,8 C 5,1 km/h (1 Bft)
23.08.2011 19:00 27,2 C 24,4 C 27,0 C 28,5 C 28,5 C 1,3 C 71 % 72 % 34 % 1011,1 hPa 0,0 l/m 2,8 km/h (1 Bft) O-NO 0,67 h 0,0 UV-I 21,4 C 28,5 C 3,6 km/h (1 Bft)
23.08.2011 20:00 25,9 C 24,8 C 25,2 C 25,7 C 25,1 C 0,0 C 75 % 78 % 0 % 1011,0 hPa 0,0 l/m 2,3 km/h (1 Bft) O-NO 0,00 h 0,0 UV-I 21,1 C 25,1 C 2,6 km/h (1 Bft)
23.08.2011 21:00 24,5 C 25,2 C 24,9 C 23,9 C 22,8 C 0,0 C 79 % 80 % 0 % 1011,0 hPa 0,0 l/m 0,0 km/h (0 Bft) N 0,00 h 0,0 UV-I 20,7 C 22,8 C 0,1 km/h (0 Bft)
23.08.2011 22:00 23,4 C 25,4 C 24,9 C 23,0 C 22,1 C 0,0 C 83 % 80 % 0 % 1010,4 hPa 0,0 l/m 0,0 km/h (0 Bft) N 0,00 h 0,0 UV-I 20,5 C 22,1 C 0,0 km/h (0 Bft)
23.08.2011 23:00 22,8 C 25,4 C 24,9 C 22,4 C 21,6 C 0,0 C 86 % 80 % 0 % 1010,2 hPa 0,0 l/m 0,0 km/h (0 Bft) N 0,00 h 0,0 UV-I 20,4 C 21,6 C 0,0 km/h (0 Bft)
24.08.2011 00:00 22,4 C 25,3 C 24,9 C 22,0 C 21,1 C 0,0 C 88 % 80 % 0 % 1010,1 hPa 0,0 l/m 0,0 km/h (0 Bft) N 0,00 h 0,0 UV-I 20,2 C 21,1 C 0,0 km/h (0 Bft)
24.08.2011 01:00 22,0 C 25,3 C 24,9 C 21,6 C 20,8 C 0,0 C 88 % 80 % 0 % 1010,0 hPa 0,0 l/m 0,0 km/h (0 Bft) N 0,00 h 0,0 UV-I 20,0 C 20,8 C 0,0 km/h (0 Bft)
24.08.2011 02:00 21,6 C 25,3 C 24,9 C 21,1 C 20,1 C 0,0 C 88 % 80 % 0 % 1009,9 hPa 0,0 l/m 0,0 km/h (0 Bft) N 0,00 h 0,0 UV-I 19,6 C 20,1 C 0,0 km/h (0 Bft)
24.08.2011 03:00 21,2 C 25,2 C 24,9 C 20,7 C 19,7 C 0,0 C 89 % 80 % 0 % 1009,7 hPa 0,0 l/m 0,0 km/h (0 Bft) N 0,00 h 0,0 UV-I 19,3 C 19,7 C 0,3 km/h (0 Bft)
24.08.2011 04:00 20,6 C 25,1 C 24,9 C 20,2 C 19,2 C 0,0 C 89 % 80 % 0 % 1009,6 hPa 0,0 l/m 0,0 km/h (0 Bft) N 0,00 h 0,0 UV-I 18,8 C 19,2 C 0,2 km/h (0 Bft)
24.08.2011 05:00 20,4 C 25,0 C 24,9 C 20,1 C 19,3 C 0,0 C 90 % 80 % 0 % 1009,7 hPa 0,0 l/m 0,5 km/h (0 Bft) W-SW 0,00 h 0,0 UV-I 18,6 C 19,3 C 1,7 km/h (1 Bft)
24.08.2011 06:00 20,4 C 24,7 C 20,4 C 20,0 C 19,2 C 0,0 C 88 % 90 % 0 % 1012,5 hPa 2,7 l/m 6,2 km/h (2 Bft) SW 0,00 h 0,0 UV-I 18,4 C 19,2 C 9,5 km/h (2 Bft)
24.08.2011 07:00 19,5 C 24,8 C 19,5 C 19,1 C 18,2 C 0,0 C 88 % 93 % 0 % 1013,1 hPa 2,7 l/m 1,4 km/h (1 Bft) O-NO 0,00 h 0,0 UV-I 17,5 C 18,2 C 1,3 km/h (1 Bft)
24.08.2011 08:00 19,6 C 24,6 C 19,5 C 22,3 C 22,2 C 2,7 C 90 % 93 % 62 % 1012,0 hPa 0,0 l/m 1,6 km/h (1 Bft) O-SO 0,33 h 0,1 UV-I 17,9 C 22,2 C 2,8 km/h (1 Bft)
24.08.2011 09:00 20,6 C 24,3 C 19,5 C 24,9 C 24,9 C 4,3 C 89 % 93 % 86 % 1013,0 hPa 0,0 l/m 1,4 km/h (1 Bft) S 0,58 h 0,0 UV-I 18,7 C 24,9 C 1,6 km/h (1 Bft)
24.08.2011 10:00 21,9 C 24,1 C 21,3 C 24,1 C 24,1 C 2,2 C 84 % 92 % 58 % 1012,0 hPa 0,0 l/m 0,3 km/h (0 Bft) N 0,00 h 0,0 UV-I 19,1 C 24,1 C 0,1 km/h (0 Bft)
24.08.2011 11:00 23,5 C 24,0 C 22,4 C 25,9 C 25,9 C 2,4 C 79 % 91 % 64 % 1012,1 hPa 0,0 l/m 0,8 km/h (0 Bft) S-SO 0,00 h 0,0 UV-I 19,7 C 25,9 C 1,6 km/h (1 Bft)
24.08.2011 12:00 25,2 C 24,0 C 24,9 C 31,0 C 31,0 C 5,8 C 72 % 80 % 95 % 1011,6 hPa 0,0 l/m 2,5 km/h (1 Bft) W-SW 0,67 h 0,2 UV-I 19,8 C 31,0 C 2,7 km/h (1 Bft)
24.08.2011 13:00 26,5 C 24,0 C 26,8 C 34,3 C 34,3 C 7,8 C 66 % 70 % 100 % 1011,3 hPa 0,0 l/m 1,6 km/h (1 Bft) SW 1,00 h 0,0 UV-I 19,7 C 34,3 C 1,6 km/h (1 Bft)
24.08.2011 14:00 27,8 C 24,0 C 28,7 C 35,8 C 35,8 C 8,0 C 60 % 62 % 100 % 1010,9 hPa 0,0 l/m 1,5 km/h (1 Bft) SO 1,00 h 0,1 UV-I 19,2 C 35,8 C 1,7 km/h (1 Bft)
24.08.2011 15:00 28,7 C 24,2 C 32,8 C 37,1 C 37,1 C 8,4 C 54 % 50 % 100 % 1010,7 hPa 0,0 l/m 1,0 km/h (0 Bft) NW 1,00 h 0,1 UV-I 18,3 C 37,1 C 1,8 km/h (1 Bft)
24.08.2011 16:00 29,2 C 24,6 C 31,9 C 37,1 C 37,1 C 7,9 C 52 % 48 % 100 % 1010,5 hPa 0,0 l/m 0,9 km/h (0 Bft) W-NW 1,00 h 0,0 UV-I 18,4 C 37,1 C 1,5 km/h (1 Bft)
24.08.2011 17:00 29,2 C 25,0 C 29,9 C 35,5 C 35,5 C 6,3 C 55 % 54 % 100 % 1009,9 hPa 0,0 l/m 0,6 km/h (0 Bft) W-SW 1,05 h 0,0 UV-I 19,2 C 35,5 C 1,8 km/h (1 Bft)
24.08.2011 18:00 28,4 C 25,0 C 27,7 C 31,8 C 31,8 C 3,4 C 59 % 63 % 66 % 1009,8 hPa 0,0 l/m 0,2 km/h (0 Bft) N 0,62 h 0,0 UV-I 19,5 C 31,8 C 0,3 km/h (0 Bft)
24.08.2011 19:00 26,4 C 25,0 C 25,0 C 26,2 C 25,8 C 0,0 C 67 % 75 % 0 % 1009,6 hPa 0,0 l/m 0,4 km/h (0 Bft) O-NO 0,00 h 0,0 UV-I 19,8 C 25,8 C 0,2 km/h (0 Bft)
24.08.2011 20:00 24,5 C 26,1 C 20,9 C 23,8 C 22,2 C 0,0 C 79 % 80 % 0 % 1009,7 hPa 2,1 l/m 0,2 km/h (0 Bft) N 0,00 h 0,0 UV-I 20,7 C 22,2 C 0,3 km/h (0 Bft)
24.08.2011 21:00 22,5 C 26,0 C 16,0 C 22,0 C 20,8 C 0,0 C 85 % 80 % 0 % 1009,0 hPa 0,0 l/m 0,3 km/h (0 Bft) W-SW 0,00 h 0,0 UV-I 19,8 C 20,8 C 0,6 km/h (0 Bft)
24.08.2011 22:00 21,3 C 25,7 C 16,0 C 20,9 C 20,1 C 0,0 C 82 % 80 % 0 % 1010,1 hPa 0,0 l/m 3,4 km/h (1 Bft) O-NO 0,00 h 0,0 UV-I 18,1 C 20,1 C 3,8 km/h (1 Bft)
24.08.2011 23:00 20,2 C 25,5 C 16,0 C 19,7 C 18,6 C 0,0 C 84 % 80 % 0 % 1010,7 hPa 0,0 l/m 0,8 km/h (0 Bft) O 0,00 h 0,0 UV-I 17,4 C 18,6 C 0,9 km/h (0 Bft)
25.08.2011 00:00 19,9 C 25,3 C 16,0 C 19,4 C 18,5 C 0,0 C 86 % 80 % 0 % 1011,1 hPa 0,0 l/m 0,6 km/h (0 Bft) SW 0,00 h 0,0 UV-I 17,5 C 18,5 C 0,6 km/h (0 Bft)
25.08.2011 01:00 19,7 C 25,3 C 16,0 C 19,1 C 18,0 C 0,0 C 88 % 80 % 0 % 1011,9 hPa 0,0 l/m 0,2 km/h (0 Bft) N 0,00 h 0,0 UV-I 17,6 C 18,0 C 0,5 km/h (0 Bft)
25.08.2011 02:00 19,4 C 25,1 C 16,0 C 18,8 C 17,6 C 0,0 C 88 % 80 % 0 % 1011,8 hPa 0,0 l/m 0,5 km/h (0 Bft) SW 0,00 h 0,0 UV-I 17,3 C 17,6 C 0,9 km/h (0 Bft)
25.08.2011 03:00 19,3 C 24,9 C 16,0 C 18,9 C 18,2 C 0,0 C 88 % 80 % 0 % 1012,0 hPa 0,0 l/m 0,8 km/h (0 Bft) SO 0,00 h 0,0 UV-I 17,2 C 18,2 C 1,4 km/h (1 Bft)
25.08.2011 04:00 19,2 C 24,7 C 16,0 C 18,8 C 18,1 C 0,0 C 87 % 80 % 0 % 1012,1 hPa 0,0 l/m 0,6 km/h (0 Bft) W-SW 0,00 h 0,0 UV-I 17,1 C 18,1 C 0,9 km/h (0 Bft)
25.08.2011 05:00 19,1 C 24,6 C 16,0 C 18,6 C 17,6 C 0,0 C 87 % 80 % 0 % 1012,1 hPa 0,0 l/m 0,5 km/h (0 Bft) W-SW 0,00 h 0,0 UV-I 16,9 C 17,6 C 0,4 km/h (0 Bft)
25.08.2011 06:00 18,6 C 24,6 C 17,1 C 17,9 C 16,5 C 0,0 C 87 % 91 % 0 % 1011,8 hPa 0,0 l/m 0,0 km/h (0 Bft) N 0,00 h 0,0 UV-I 16,4 C 16,5 C 0,0 km/h (0 Bft)
25.08.2011 07:00 18,6 C 24,6 C 17,6 C 19,5 C 19,3 C 0,9 C 88 % 94 % 24 % 1011,8 hPa 0,0 l/m 0,0 km/h (0 Bft) N 0,17 h 0,0 UV-I 16,6 C 19,3 C 0,0 km/h (0 Bft)
25.08.2011 08:00 19,0 C 24,6 C 18,1 C 22,7 C 22,7 C 3,7 C 87 % 93 % 76 % 1012,2 hPa 0,0 l/m 1,6 km/h (1 Bft) W-SW 0,58 h 0,1 UV-I 16,9 C 22,7 C 2,5 km/h (1 Bft)
25.08.2011 09:00 19,8 C 24,6 C 19,0 C 23,7 C 23,7 C 3,9 C 86 % 91 % 82 % 1012,5 hPa 0,0 l/m 1,9 km/h (1 Bft) SW 0,50 h 0,0 UV-I 17,3 C 23,7 C 3,3 km/h (1 Bft)
25.08.2011 10:00 20,8 C 24,6 C 20,4 C 23,7 C 23,7 C 2,9 C 83 % 87 % 77 % 1012,7 hPa 0,0 l/m 0,9 km/h (0 Bft) S-SO 0,42 h 0,1 UV-I 17,9 C 23,7 C 1,1 km/h (1 Bft)
25.08.2011 11:00 21,8 C 24,6 C 21,7 C 24,1 C 24,1 C 2,3 C 80 % 82 % 60 % 1012,4 hPa 0,0 l/m 1,2 km/h (1 Bft) O-NO 0,08 h 0,0 UV-I 18,2 C 24,1 C 1,3 km/h (1 Bft)
25.08.2011 12:00 23,0 C 24,6 C 22,1 C 27,2 C 27,2 C 4,3 C 76 % 81 % 80 % 1012,3 hPa 0,0 l/m 2,0 km/h (1 Bft) W-SW 0,58 h 0,2 UV-I 18,6 C 27,2 C 2,5 km/h (1 Bft)
25.08.2011 13:00 24,0 C 24,6 C 22,1 C 30,8 C 30,8 C 6,8 C 73 % 81 % 100 % 1012,4 hPa 0,0 l/m 2,2 km/h (1 Bft) O 1,00 h 0,0 UV-I 18,8 C 30,8 C 3,2 km/h (1 Bft)
25.08.2011 14:00 24,8 C 24,4 C 24,5 C 31,8 C 31,8 C 7,0 C 69 % 73 % 100 % 1012,2 hPa 0,0 l/m 1,5 km/h (1 Bft) O-NO 1,00 h 0,0 UV-I 18,8 C 31,8 C 2,2 km/h (1 Bft)
25.08.2011 15:00 25,4 C 23,9 C 29,1 C 32,7 C 32,7 C 7,3 C 64 % 54 % 100 % 1011,9 hPa 0,0 l/m 1,3 km/h (1 Bft) O-NO 1,00 h 0,0 UV-I 18,1 C 32,7 C 1,9 km/h (1 Bft)
25.08.2011 16:00 25,9 C 23,7 C 28,1 C 31,5 C 31,5 C 5,6 C 65 % 59 % 100 % 1011,3 hPa 0,0 l/m 2,3 km/h (1 Bft) O-NO 1,00 h 0,0 UV-I 18,8 C 31,5 C 3,0 km/h (1 Bft)
25.08.2011 17:00 26,0 C 23,0 C 26,9 C 29,6 C 29,6 C 3,6 C 66 % 64 % 89 % 1011,0 hPa 0,0 l/m 4,8 km/h (1 Bft) O-NO 0,75 h 0,0 UV-I 19,1 C 29,6 C 5,9 km/h (2 Bft)
25.08.2011 18:00 25,8 C 23,5 C 25,8 C 27,6 C 27,6 C 1,9 C 68 % 68 % 49 % 1010,6 hPa 0,0 l/m 4,1 km/h (1 Bft) O-NO 0,00 h 0,0 UV-I 19,5 C 27,6 C 5,6 km/h (1 Bft)
25.08.2011 19:00 24,8 C 24,0 C 24,2 C 24,8 C 24,5 C 0,1 C 72 % 75 % 3 % 1010,5 hPa 0,0 l/m 1,4 km/h (1 Bft) O 0,00 h 0,0 UV-I 19,4 C 24,5 C 1,3 km/h (1 Bft)
25.08.2011 20:00 23,9 C 24,9 C 23,4 C 23,6 C 23,1 C 0,0 C 74 % 76 % 0 % 1010,7 hPa 0,0 l/m 3,0 km/h (1 Bft) O-NO 0,00 h 0,0 UV-I 19,0 C 23,1 C 2,9 km/h (1 Bft)
25.08.2011 21:00 23,2 C 25,1 C 23,1 C 23,0 C 22,5 C 0,0 C 77 % 77 % 0 % 1011,0 hPa 0,0 l/m 2,3 km/h (1 Bft) O-NO 0,00 h 0,0 UV-I 19,0 C 22,5 C 2,3 km/h (1 Bft)
25.08.2011 22:00 22,4 C 25,2 C 22,7 C 21,9 C 20,9 C 0,0 C 81 % 80 % 0 % 1011,0 hPa 0,0 l/m 0,3 km/h (0 Bft) N 0,00 h 0,0 UV-I 19,0 C 20,9 C 0,3 km/h (0 Bft)
25.08.2011 23:00 21,6 C 25,2 C 22,7 C 21,0 C 19,9 C 0,0 C 83 % 80 % 0 % 1010,6 hPa 0,0 l/m 0,0 km/h (0 Bft) N 0,00 h 0,0 UV-I 18,6 C 19,9 C 0,0 km/h (0 Bft)
26.08.2011 00:00 21,0 C 25,2 C 22,7 C 20,5 C 19,4 C 0,0 C 83 % 80 % 0 % 1010,1 hPa 0,0 l/m 0,7 km/h (0 Bft) O-NO 0,00 h 0,0 UV-I 18,0 C 19,4 C 1,2 km/h (1 Bft)
26.08.2011 01:00 20,3 C 25,2 C 22,7 C 19,7 C 18,5 C 0,0 C 84 % 80 % 0 % 1009,8 hPa 0,0 l/m 0,6 km/h (0 Bft) N-NO 0,00 h 0,0 UV-I 17,5 C 18,5 C 1,5 km/h (1 Bft)
26.08.2011 02:00 19,9 C 25,2 C 22,7 C 19,3 C 18,1 C 0,0 C 85 % 80 % 0 % 1009,2 hPa 0,0 l/m 0,0 km/h (0 Bft) N 0,00 h 0,0 UV-I 17,3 C 18,1 C 0,0 km/h (0 Bft)
26.08.2011 03:00 19,5 C 25,2 C 22,7 C 18,9 C 17,6 C 0,0 C 85 % 80 % 0 % 1008,9 hPa 0,0 l/m 0,0 km/h (0 Bft) N 0,00 h 0,0 UV-I 17,0 C 17,6 C 0,0 km/h (0 Bft)
26.08.2011 04:00 19,0 C 25,1 C 22,7 C 18,3 C 17,0 C 0,0 C 86 % 80 % 0 % 1008,5 hPa 0,0 l/m 0,0 km/h (0 Bft) N 0,00 h 0,0 UV-I 16,6 C 17,0 C 0,2 km/h (0 Bft)
26.08.2011 05:00 18,6 C 25,1 C 18,9 C 18,0 C 16,8 C 0,0 C 87 % 88 % 0 % 1008,2 hPa 0,0 l/m 0,0 km/h (0 Bft) N 0,00 h 0,0 UV-I 16,4 C 16,8 C 0,0 km/h (0 Bft)
26.08.2011 06:00 18,7 C 24,7 C 17,8 C 18,3 C 17,4 C 0,0 C 88 % 91 % 0 % 1008,8 hPa 0,0 l/m 0,0 km/h (0 Bft) N 0,00 h 0,0 UV-I 16,6 C 17,4 C 0,0 km/h (0 Bft)
26.08.2011 07:00 19,2 C 24,6 C 18,4 C 19,7 C 19,6 C 0,5 C 86 % 90 % 12 % 1007,9 hPa 0,0 l/m 0,0 km/h (0 Bft) N 0,00 h 0,0 UV-I 16,9 C 19,6 C 0,0 km/h (0 Bft)
26.08.2011 08:00 19,7 C 24,6 C 19,2 C 21,3 C 21,3 C 1,6 C 87 % 91 % 41 % 1007,5 hPa 0,0 l/m 0,2 km/h (0 Bft) N 0,08 h 0,0 UV-I 17,5 C 21,3 C 0,5 km/h (0 Bft)
26.08.2011 09:00 21,7 C 24,6 C 21,7 C 25,5 C 25,5 C 3,8 C 86 % 88 % 96 % 1007,3 hPa 0,0 l/m 2,0 km/h (1 Bft) O-NO 0,83 h 0,1 UV-I 19,3 C 25,5 C 2,9 km/h (1 Bft)
26.08.2011 10:00 25,0 C 24,6 C 25,8 C 27,3 C 27,3 C 2,3 C 75 % 73 % 61 % 1006,7 hPa 0,0 l/m 4,7 km/h (1 Bft) O-NO 0,08 h 0,0 UV-I 20,3 C 27,3 C 6,1 km/h (2 Bft)
26.08.2011 11:00 26,5 C 24,5 C 26,6 C 28,6 C 28,6 C 2,1 C 74 % 74 % 56 % 1006,1 hPa 0,0 l/m 3,7 km/h (1 Bft) O-NO 0,00 h 0,0 UV-I 21,4 C 28,6 C 4,4 km/h (1 Bft)
26.08.2011 12:00 28,4 C 24,2 C 28,2 C 34,0 C 34,0 C 5,6 C 68 % 71 % 93 % 1005,3 hPa 0,0 l/m 2,0 km/h (1 Bft) N-NO 0,67 h 0,2 UV-I 21,9 C 34,0 C 3,5 km/h (1 Bft)
26.08.2011 13:00 29,8 C 24,2 C 29,7 C 37,8 C 37,8 C 8,0 C 60 % 63 % 100 % 1004,6 hPa 0,0 l/m 1,1 km/h (1 Bft) O-NO 1,00 h 0,1 UV-I 21,3 C 37,8 C 1,6 km/h (1 Bft)
26.08.2011 14:00 30,6 C 24,4 C 31,5 C 37,5 C 37,5 C 7,0 C 58 % 57 % 100 % 1003,9 hPa 0,0 l/m 1,8 km/h (1 Bft) O-SO 1,00 h 0,1 UV-I 21,2 C 37,5 C 2,9 km/h (1 Bft)
26.08.2011 15:00 30,8 C 24,8 C 34,2 C 36,8 C 36,8 C 6,0 C 56 % 50 % 100 % 1003,7 hPa 0,0 l/m 3,0 km/h (1 Bft) O-NO 1,00 h 0,1 UV-I 21,1 C 36,8 C 2,5 km/h (1 Bft)
26.08.2011 16:00 30,9 C 25,3 C 32,8 C 36,4 C 36,4 C 5,5 C 56 % 52 % 100 % 1003,0 hPa 0,0 l/m 2,8 km/h (1 Bft) O-NO 1,00 h 0,1 UV-I 21,0 C 36,4 C 3,7 km/h (1 Bft)
26.08.2011 17:00 30,5 C 25,7 C 31,0 C 35,5 C 35,5 C 5,0 C 59 % 58 % 100 % 1002,4 hPa 0,0 l/m 2,1 km/h (1 Bft) NO 1,00 h 0,0 UV-I 21,5 C 35,5 C 3,4 km/h (1 Bft)
26.08.2011 18:00 29,8 C 25,9 C 29,5 C 34,0 C 34,0 C 4,2 C 61 % 62 % 99 % 1002,2 hPa 0,0 l/m 1,0 km/h (0 Bft) NO 1,00 h 0,0 UV-I 21,4 C 34,0 C 1,6 km/h (1 Bft)
26.08.2011 19:00 28,8 C 25,9 C 28,0 C 30,0 C 29,9 C 1,2 C 66 % 69 % 31 % 1001,9 hPa 0,0 l/m 3,1 km/h (1 Bft) NO 0,67 h 0,0 UV-I 21,9 C 29,9 C 4,5 km/h (1 Bft)
26.08.2011 20:00 27,0 C 25,9 C 25,8 C 26,5 C 25,3 C 0,0 C 73 % 78 % 0 % 1001,5 hPa 0,0 l/m 0,4 km/h (0 Bft) N 0,00 h 0,0 UV-I 21,7 C 25,3 C 0,2 km/h (0 Bft)
26.08.2011 21:00 25,4 C 26,1 C 24,2 C 24,8 C 23,4 C 0,0 C 78 % 83 % 0 % 1001,2 hPa 0,0 l/m 0,0 km/h (0 Bft) N 0,00 h 0,0 UV-I 21,3 C 23,4 C 0,0 km/h (0 Bft)
26.08.2011 22:00 24,4 C 26,5 C 23,2 C 23,8 C 22,5 C 0,0 C 81 % 86 % 0 % 1000,7 hPa 0,0 l/m 0,1 km/h (0 Bft) N 0,00 h 0,0 UV-I 20,9 C 22,5 C 0,0 km/h (0 Bft)
26.08.2011 23:00 23,5 C 26,5 C 22,5 C 22,8 C 21,5 C 0,0 C 83 % 88 % 0 % 1000,0 hPa 0,0 l/m 0,0 km/h (0 Bft) N 0,00 h 0,0 UV-I 20,4 C 21,5 C 0,0 km/h (0 Bft)
27.08.2011 00:00 22,8 C 26,5 C 22,5 C 22,3 C 21,3 C 0,0 C 84 % 88 % 0 % 999,1 hPa 0,0 l/m 0,0 km/h (0 Bft) N 0,00 h 0,0 UV-I 19,9 C 21,3 C 0,0 km/h (0 Bft)
27.08.2011 01:00 23,1 C 26,1 C 22,8 C 23,1 C 22,7 C 0,2 C 77 % 84 % 0 % 999,1 hPa 0,0 l/m 5,6 km/h (1 Bft) SW 0,00 h 0,0 UV-I 18,8 C 22,7 C 7,5 km/h (2 Bft)
27.08.2011 02:00 22,5 C 25,9 C 23,6 C 22,0 C 21,1 C 0,0 C 74 % 72 % 0 % 1000,9 hPa 0,0 l/m 4,6 km/h (1 Bft) W-SW 0,00 h 0,0 UV-I 17,6 C 21,1 C 7,1 km/h (2 Bft)
27.08.2011 03:00 21,2 C 25,8 C 20,5 C 20,8 C 20,1 C 0,0 C 76 % 79 % 0 % 1002,2 hPa 0,0 l/m 4,9 km/h (1 Bft) W-SW 0,00 h 0,0 UV-I 16,8 C 20,1 C 5,8 km/h (1 Bft)
27.08.2011 04:00 20,4 C 25,7 C 19,7 C 20,0 C 19,2 C 0,0 C 78 % 81 % 0 % 1003,4 hPa 0,0 l/m 4,7 km/h (1 Bft) W-SW 0,00 h 0,0 UV-I 16,3 C 19,2 C 5,8 km/h (2 Bft)
27.08.2011 05:00 20,1 C 25,5 C 19,7 C 19,8 C 19,3 C 0,0 C 79 % 81 % 0 % 1003,9 hPa 0,0 l/m 5,3 km/h (1 Bft) SW 0,00 h 0,0 UV-I 16,3 C 19,3 C 7,3 km/h (2 Bft)
27.08.2011 06:00 19,8 C 25,3 C 19,7 C 19,6 C 19,1 C 0,0 C 81 % 81 % 0 % 1004,8 hPa 0,0 l/m 5,9 km/h (2 Bft) W-SW 0,00 h 0,0 UV-I 16,4 C 19,1 C 8,6 km/h (2 Bft)
27.08.2011 07:00 19,7 C 25,2 C 19,7 C 19,6 C 19,4 C 0,0 C 81 % 81 % 0 % 1005,3 hPa 0,0 l/m 3,4 km/h (1 Bft) W-SW 0,00 h 0,0 UV-I 16,4 C 19,4 C 4,3 km/h (1 Bft)
27.08.2011 08:00 19,3 C 25,0 C 18,9 C 19,1 C 18,8 C 0,0 C 80 % 83 % 0 % 1006,1 hPa 0,0 l/m 6,2 km/h (2 Bft) SW 0,00 h 0,0 UV-I 15,9 C 18,8 C 10,0 km/h (2 Bft)
27.08.2011 09:00 17,6 C 25,0 C 16,8 C 17,1 C 16,1 C 0,0 C 83 % 86 % 0 % 1009,2 hPa 0,0 l/m 8,9 km/h (2 Bft) W-SW 0,00 h 0,0 UV-I 14,6 C 16,1 C 11,1 km/h (2 Bft)
27.08.2011 10:00 16,0 C 24,9 C 16,5 C 15,6 C 15,1 C 0,0 C 87 % 87 % 0 % 1010,2 hPa 0,0 l/m 9,2 km/h (2 Bft) W-SW 0,00 h 0,0 UV-I 13,9 C 15,1 C 12,0 km/h (2 Bft)
27.08.2011 11:00 14,7 C 24,7 C 15,7 C 14,8 C 14,7 C 0,1 C 88 % 87 % 4 % 1011,4 hPa 0,0 l/m 8,3 km/h (2 Bft) W-SW 0,00 h 0,0 UV-I 12,7 C 14,7 C 10,7 km/h (2 Bft)
27.08.2011 12:00 14,7 C 24,7 C 15,0 C 14,7 C 14,7 C 0,1 C 87 % 88 % 1 % 1011,8 hPa 0,0 l/m 6,5 km/h (2 Bft) W-SW 0,00 h 0,0 UV-I 12,6 C 14,7 C 7,7 km/h (2 Bft)
27.08.2011 13:00 14,4 C 24,3 C 14,6 C 14,3 C 14,1 C 0,0 C 88 % 90 % 0 % 1012,5 hPa 0,7 l/m 5,2 km/h (1 Bft) SW 0,00 h 0,0 UV-I 12,5 C 14,1 C 5,5 km/h (1 Bft)
27.08.2011 14:00 14,3 C 24,2 C 14,7 C 14,2 C 14,0 C 0,0 C 89 % 90 % 0 % 1012,7 hPa 0,0 l/m 3,5 km/h (1 Bft) S 0,00 h 0,0 UV-I 12,5 C 14,0 C 4,5 km/h (1 Bft)
27.08.2011 15:00 14,1 C 24,2 C 14,7 C 13,9 C 13,6 C 0,0 C 89 % 90 % 0 % 1013,3 hPa 2,1 l/m 1,4 km/h (1 Bft) S 0,00 h 0,0 UV-I 12,3 C 13,6 C 2,8 km/h (1 Bft)
27.08.2011 16:00 13,7 C 24,0 C 14,7 C 13,7 C 13,5 C 0,0 C 90 % 90 % 0 % 1014,1 hPa 1,4 l/m 0,3 km/h (0 Bft) S-SO 0,00 h 0,0 UV-I 12,2 C 13,5 C 0,2 km/h (0 Bft)
27.08.2011 17:00 14,1 C 23,7 C 14,0 C 14,2 C 14,1 C 0,1 C 90 % 94 % 3 % 1014,6 hPa 0,0 l/m 1,9 km/h (1 Bft) S 0,00 h 0,0 UV-I 12,4 C 14,1 C 3,1 km/h (1 Bft)
27.08.2011 18:00 14,2 C 23,5 C 13,8 C 14,5 C 14,5 C 0,3 C 86 % 94 % 7 % 1014,6 hPa 0,0 l/m 2,1 km/h (1 Bft) S-SO 0,00 h 0,0 UV-I 11,9 C 14,5 C 3,1 km/h (1 Bft)
27.08.2011 19:00 14,0 C 23,2 C 13,6 C 14,0 C 13,9 C 0,0 C 85 % 94 % 0 % 1015,1 hPa 0,0 l/m 2,3 km/h (1 Bft) SO 0,00 h 0,0 UV-I 11,5 C 13,9 C 4,2 km/h (1 Bft)
27.08.2011 20:00 13,7 C 23,0 C 13,3 C 13,6 C 13,5 C 0,0 C 83 % 93 % 0 % 1015,5 hPa 0,0 l/m 3,1 km/h (1 Bft) S-SO 0,00 h 0,0 UV-I 10,8 C 13,5 C 4,4 km/h (1 Bft)
27.08.2011 21:00 13,8 C 22,8 C 13,3 C 13,7 C 13,5 C 0,0 C 81 % 93 % 0 % 1016,2 hPa 0,0 l/m 3,2 km/h (1 Bft) SO 0,00 h 0,0 UV-I 10,6 C 13,5 C 3,8 km/h (1 Bft)
27.08.2011 22:00 13,7 C 22,6 C 13,6 C 13,5 C 13,2 C 0,0 C 80 % 90 % 0 % 1016,5 hPa 0,0 l/m 2,9 km/h (1 Bft) S-SO 0,00 h 0,0 UV-I 10,3 C 13,2 C 4,7 km/h (1 Bft)
27.08.2011 23:00 13,3 C 22,5 C 13,6 C 13,0 C 12,5 C 0,0 C 81 % 88 % 0 % 1016,7 hPa 0,0 l/m 2,6 km/h (1 Bft) S 0,00 h 0,0 UV-I 10,1 C 12,5 C 5,1 km/h (1 Bft)
28.08.2011 00:00 13,1 C 22,3 C 13,5 C 12,8 C 12,3 C 0,0 C 82 % 85 % 0 % 1017,0 hPa 0,0 l/m 2,6 km/h (1 Bft) SO 0,00 h 0,0 UV-I 10,1 C 12,3 C 5,8 km/h (2 Bft)
28.08.2011 01:00 13,1 C 22,2 C 13,5 C 12,9 C 12,4 C 0,0 C 83 % 86 % 0 % 1017,3 hPa 0,0 l/m 3,4 km/h (1 Bft) SO 0,00 h 0,0 UV-I 10,3 C 12,4 C 4,9 km/h (1 Bft)
28.08.2011 02:00 12,9 C 22,2 C 13,3 C 12,7 C 12,1 C 0,0 C 84 % 86 % 0 % 1017,7 hPa 0,0 l/m 2,2 km/h (1 Bft) S-SW 0,00 h 0,0 UV-I 10,2 C 12,1 C 3,2 km/h (1 Bft)
28.08.2011 03:00 12,6 C 22,1 C 13,2 C 12,3 C 11,8 C 0,0 C 85 % 87 % 0 % 1018,0 hPa 0,0 l/m 2,1 km/h (1 Bft) S-SO 0,00 h 0,0 UV-I 10,1 C 11,8 C 2,4 km/h (1 Bft)
28.08.2011 04:00 12,1 C 22,0 C 12,8 C 11,8 C 11,2 C 0,0 C 86 % 88 % 0 % 1018,3 hPa 0,0 l/m 1,4 km/h (1 Bft) SW 0,00 h 0,0 UV-I 9,9 C 11,2 C 2,6 km/h (1 Bft)
28.08.2011 05:00 11,9 C 22,0 C 12,7 C 11,6 C 11,1 C 0,0 C 87 % 88 % 0 % 1018,2 hPa 0,0 l/m 1,1 km/h (1 Bft) S 0,00 h 0,0 UV-I 9,8 C 11,1 C 1,9 km/h (1 Bft)
28.08.2011 06:00 11,7 C 21,9 C 12,5 C 11,4 C 11,0 C 0,0 C 87 % 88 % 0 % 1018,4 hPa 0,0 l/m 1,3 km/h (1 Bft) S 0,00 h 0,0 UV-I 9,6 C 11,0 C 2,6 km/h (1 Bft)
28.08.2011 07:00 13,0 C 21,7 C 12,9 C 16,9 C 16,9 C 4,0 C 85 % 87 % 90 % 1018,8 hPa 0,0 l/m 2,3 km/h (1 Bft) SO 0,92 h 0,0 UV-I 10,6 C 16,9 C 3,0 km/h (1 Bft)
28.08.2011 08:00 14,9 C 21,6 C 14,1 C 20,1 C 20,1 C 5,2 C 79 % 83 % 100 % 1019,3 hPa 0,0 l/m 3,7 km/h (1 Bft) SO 1,00 h 0,1 UV-I 11,3 C 20,1 C 6,3 km/h (2 Bft)
28.08.2011 09:00 15,6 C 21,6 C 15,2 C 16,7 C 16,7 C 1,0 C 75 % 79 % 25 % 1019,7 hPa 0,0 l/m 4,2 km/h (1 Bft) O-SO 0,08 h 0,1 UV-I 11,2 C 16,7 C 3,7 km/h (1 Bft)
28.08.2011 10:00 16,3 C 21,5 C 17,3 C 17,0 C 17,0 C 0,8 C 71 % 71 % 20 % 1020,0 hPa 0,0 l/m 4,7 km/h (1 Bft) SO 0,00 h 0,0 UV-I 11,1 C 17,0 C 8,5 km/h (2 Bft)
28.08.2011 11:00 17,2 C 21,5 C 17,2 C 18,6 C 18,6 C 1,3 C 67 % 70 % 35 % 1020,7 hPa 0,0 l/m 5,1 km/h (1 Bft) W-SW 0,00 h 0,1 UV-I 11,0 C 18,6 C 7,8 km/h (2 Bft)
28.08.2011 12:00 18,2 C 21,6 C 17,7 C 20,5 C 20,5 C 2,3 C 63 % 67 % 60 % 1020,9 hPa 0,0 l/m 4,9 km/h (1 Bft) S 0,08 h 0,1 UV-I 10,9 C 20,5 C 7,0 km/h (2 Bft)
28.08.2011 13:00 19,1 C 21,6 C 18,6 C 21,8 C 21,8 C 2,7 C 59 % 63 % 71 % 1020,6 hPa 0,0 l/m 5,9 km/h (2 Bft) SW 0,00 h 0,1 UV-I 10,7 C 21,8 C 6,1 km/h (2 Bft)
28.08.2011 14:00 19,3 C 21,6 C 19,1 C 21,5 C 21,5 C 2,2 C 57 % 61 % 59 % 1020,5 hPa 0,0 l/m 5,0 km/h (1 Bft) SW 0,00 h 0,1 UV-I 10,6 C 21,5 C 5,6 km/h (1 Bft)
28.08.2011 15:00 20,6 C 21,7 C 22,0 C 23,5 C 23,5 C 2,9 C 53 % 53 % 77 % 1019,9 hPa 0,0 l/m 4,7 km/h (1 Bft) O-SO 0,50 h 0,0 UV-I 10,7 C 23,5 C 7,7 km/h (2 Bft)
28.08.2011 16:00 20,2 C 21,8 C 20,4 C 22,1 C 22,1 C 1,9 C 53 % 55 % 50 % 1019,3 hPa 0,0 l/m 5,1 km/h (1 Bft) W-SW 0,00 h 0,0 UV-I 10,4 C 22,1 C 8,5 km/h (2 Bft)
28.08.2011 17:00 19,9 C 22,0 C 19,6 C 20,9 C 20,9 C 1,0 C 55 % 58 % 27 % 1018,9 hPa 0,0 l/m 3,8 km/h (1 Bft) W-SW 0,00 h 0,0 UV-I 10,6 C 20,9 C 4,9 km/h (1 Bft)
28.08.2011 18:00 19,3 C 22,0 C 18,7 C 19,6 C 19,5 C 0,3 C 58 % 63 % 8 % 1018,5 hPa 0,0 l/m 1,3 km/h (1 Bft) W-SW 0,00 h 0,0 UV-I 10,9 C 19,5 C 1,5 km/h (1 Bft)
28.08.2011 19:00 17,6 C 22,2 C 17,3 C 17,5 C 17,2 C 0,0 C 68 % 74 % 0 % 1018,3 hPa 0,0 l/m 0,0 km/h (0 Bft) N 0,00 h 0,0 UV-I 11,6 C 17,2 C 0,0 km/h (0 Bft)
28.08.2011 20:00 16,0 C 22,2 C 16,3 C 15,8 C 15,3 C 0,0 C 76 % 79 % 0 % 1017,9 hPa 0,0 l/m 0,0 km/h (0 Bft) N 0,00 h 0,0 UV-I 11,8 C 15,3 C 0,0 km/h (0 Bft)
28.08.2011 21:00 14,8 C 22,2 C 15,2 C 14,5 C 13,8 C 0,0 C 81 % 83 % 0 % 1017,9 hPa 0,0 l/m 0,0 km/h (0 Bft) N 0,00 h 0,0 UV-I 11,5 C 13,8 C 0,0 km/h (0 Bft)
28.08.2011 22:00 13,5 C 22,4 C 14,4 C 13,2 C 12,7 C 0,0 C 86 % 86 % 0 % 1018,0 hPa 0,0 l/m 0,0 km/h (0 Bft) N 0,00 h 0,0 UV-I 11,1 C 12,7 C 0,0 km/h (0 Bft)
28.08.2011 23:00 13,3 C 22,4 C 14,3 C 13,2 C 13,1 C 0,0 C 88 % 87 % 0 % 1017,7 hPa 0,0 l/m 0,0 km/h (0 Bft) N 0,00 h 0,0 UV-I 11,3 C 13,1 C 0,0 km/h (0 Bft)
Min-Datum _ 28.08.11 28.08.11 28.08.11 28.08.11 28.08.11 22.08.11 24.08.11 24.08.11 22.08.11 27.08.11 - 22.08.11 - - 22.08.11 28.08.11 28.08.11 22.08.11
_ Min-Zeit 06:30 10:10 06:40 06:10 06:10 00:00 15:55 16:10 00:00 01:10 - 00:00 - - 00:00 06:30 06:10 00:00
Minimum _ 11,6 C 21,5 C 12,4 C 11,4 C 10,9 C 0,0 C 51 % 45 % 0 % 998,7 hPa - 0,0 km/h (0 Bft) - - 0,0 UV-I 9,5 C 10,9 C 0,0 km/h (0 Bft)
Max-Datum _ 26.08.11 26.08.11 26.08.11 26.08.11 26.08.11 24.08.11 24.08.11 25.08.11 22.08.11 28.08.11 24.08.11 24.08.11 - 24.08.11 23.08.11 26.08.11 26.08.11 24.08.11
_ Max-Zeit 15:20 22:40 15:20 13:55 13:55 15:40 06:00 06:15 07:30 12:25 06:05 06:10 - 18:15 12:30 12:15 13:55 06:05
Maximum _ 30,9 C 26,6 C 34,5 C 38,3 C 38,3 C 8,8 C 91 % 94 % 100 % 1021,6 hPa 2,7 l/m 13,2 km/h
SW (3 Bft)
- 0,25 h 0,2 UV-I 22,1 C 38,3 C 24,9 km/h
SW (4 Bft)
Durchschnitt _ 21,0 C 24,1 C 21,0 C 22,5 C 22,0 C 1,7 C 78 % 79 % 33 % 1012,1 hPa #11,7 l/m 2,1 km/h (1 Bft) W-SW #42:20 h 0,1 UV-I 16,8 C 22,0 C 2,9 km/h (1 Bft)
2013 www.wetterstation-wechselburg.de